sensor_id;sensor_type;location;lat;lon;timestamp;P1;durP1;ratioP1;P2;durP2;ratioP2
64291;SDS011;50628;51.008;13.658;2023-08-06T00:02:00;10.88;;;9.77;;
64291;SDS011;50628;51.008;13.658;2023-08-06T00:07:02;10.18;;;7.50;;
64291;SDS011;50628;51.008;13.658;2023-08-06T00:12:06;8.80;;;7.75;;
64291;SDS011;50628;51.008;13.658;2023-08-06T00:17:08;9.55;;;8.35;;
64291;SDS011;50628;51.008;13.658;2023-08-06T00:22:10;8.20;;;7.40;;
64291;SDS011;50628;51.008;13.658;2023-08-06T00:27:13;10.07;;;8.95;;
64291;SDS011;50628;51.008;13.658;2023-08-06T00:32:15;9.38;;;8.48;;
64291;SDS011;50628;51.008;13.658;2023-08-06T00:37:17;9.90;;;8.00;;
64291;SDS011;50628;51.008;13.658;2023-08-06T00:42:20;8.38;;;7.55;;
64291;SDS011;50628;51.008;13.658;2023-08-06T00:47:22;7.82;;;7.00;;
64291;SDS011;50628;51.008;13.658;2023-08-06T00:52:25;7.80;;;7.03;;
64291;SDS011;50628;51.008;13.658;2023-08-06T00:57:28;5.68;;;5.18;;
64291;SDS011;50628;51.008;13.658;2023-08-06T01:02:30;6.32;;;5.72;;
64291;SDS011;50628;51.008;13.658;2023-08-06T01:07:36;7.80;;;6.05;;
64291;SDS011;50628;51.008;13.658;2023-08-06T01:12:48;7.30;;;6.10;;
64291;SDS011;50628;51.008;13.658;2023-08-06T01:17:57;6.95;;;6.25;;
64291;SDS011;50628;51.008;13.658;2023-08-06T01:23:01;8.55;;;6.43;;
64291;SDS011;50628;51.008;13.658;2023-08-06T01:28:06;6.10;;;5.43;;
64291;SDS011;50628;51.008;13.658;2023-08-06T01:33:16;8.50;;;6.00;;
64291;SDS011;50628;51.008;13.658;2023-08-06T01:38:24;7.85;;;5.10;;
64291;SDS011;50628;51.008;13.658;2023-08-06T01:43:28;7.15;;;5.68;;
64291;SDS011;50628;51.008;13.658;2023-08-06T01:48:30;6.10;;;5.47;;
64291;SDS011;50628;51.008;13.658;2023-08-06T01:53:33;6.07;;;5.53;;
64291;SDS011;50628;51.008;13.658;2023-08-06T01:58:35;7.15;;;6.40;;
64291;SDS011;50628;51.008;13.658;2023-08-06T02:03:37;6.60;;;5.78;;
64291;SDS011;50628;51.008;13.658;2023-08-06T02:08:40;7.82;;;6.20;;
64291;SDS011;50628;51.008;13.658;2023-08-06T02:13:42;6.82;;;6.25;;
64291;SDS011;50628;51.008;13.658;2023-08-06T02:18:44;7.57;;;6.80;;
64291;SDS011;50628;51.008;13.658;2023-08-06T02:23:47;9.07;;;6.85;;
64291;SDS011;50628;51.008;13.658;2023-08-06T02:28:49;8.40;;;7.65;;
64291;SDS011;50628;51.008;13.658;2023-08-06T02:33:51;7.85;;;7.20;;
64291;SDS011;50628;51.008;13.658;2023-08-06T02:38:55;10.50;;;7.78;;
64291;SDS011;50628;51.008;13.658;2023-08-06T02:43:57;8.85;;;7.95;;
64291;SDS011;50628;51.008;13.658;2023-08-06T02:48:59;8.45;;;7.65;;
64291;SDS011;50628;51.008;13.658;2023-08-06T02:54:02;9.13;;;7.53;;
64291;SDS011;50628;51.008;13.658;2023-08-06T02:59:06;8.40;;;7.32;;
64291;SDS011;50628;51.008;13.658;2023-08-06T03:04:26;7.95;;;7.22;;
64291;SDS011;50628;51.008;13.658;2023-08-06T03:09:29;10.05;;;9.07;;
64291;SDS011;50628;51.008;13.658;2023-08-06T03:14:32;8.73;;;7.82;;
64291;SDS011;50628;51.008;13.658;2023-08-06T03:19:34;8.77;;;7.70;;
64291;SDS011;50628;51.008;13.658;2023-08-06T03:24:37;9.65;;;8.68;;
64291;SDS011;50628;51.008;13.658;2023-08-06T03:29:39;8.25;;;7.15;;
64291;SDS011;50628;51.008;13.658;2023-08-06T03:34:42;7.65;;;6.93;;
64291;SDS011;50628;51.008;13.658;2023-08-06T03:39:47;8.43;;;7.63;;
64291;SDS011;50628;51.008;13.658;2023-08-06T03:44:49;7.68;;;6.97;;
64291;SDS011;50628;51.008;13.658;2023-08-06T03:49:51;7.75;;;6.95;;
64291;SDS011;50628;51.008;13.658;2023-08-06T03:54:57;5.13;;;4.72;;
64291;SDS011;50628;51.008;13.658;2023-08-06T03:59:59;7.35;;;6.05;;
64291;SDS011;50628;51.008;13.658;2023-08-06T04:05:03;5.18;;;4.78;;
64291;SDS011;50628;51.008;13.658;2023-08-06T04:10:07;6.00;;;5.25;;
64291;SDS011;50628;51.008;13.658;2023-08-06T04:15:09;5.93;;;5.43;;
64291;SDS011;50628;51.008;13.658;2023-08-06T04:20:11;5.28;;;4.85;;
64291;SDS011;50628;51.008;13.658;2023-08-06T04:25:15;8.57;;;6.53;;
64291;SDS011;50628;51.008;13.658;2023-08-06T04:30:21;6.13;;;5.53;;
64291;SDS011;50628;51.008;13.658;2023-08-06T04:35:23;5.85;;;4.88;;
64291;SDS011;50628;51.008;13.658;2023-08-06T04:40:26;4.93;;;4.40;;
64291;SDS011;50628;51.008;13.658;2023-08-06T04:45:28;5.47;;;4.97;;
64291;SDS011;50628;51.008;13.658;2023-08-06T04:50:30;5.38;;;4.93;;
64291;SDS011;50628;51.008;13.658;2023-08-06T04:55:33;5.85;;;5.20;;
64291;SDS011;50628;51.008;13.658;2023-08-06T05:00:35;5.28;;;4.88;;
64291;SDS011;50628;51.008;13.658;2023-08-06T05:05:39;5.93;;;5.43;;
64291;SDS011;50628;51.008;13.658;2023-08-06T05:10:43;6.15;;;5.60;;
64291;SDS011;50628;51.008;13.658;2023-08-06T05:15:45;6.63;;;6.00;;
64291;SDS011;50628;51.008;13.658;2023-08-06T05:20:47;8.85;;;6.93;;
64291;SDS011;50628;51.008;13.658;2023-08-06T05:25:50;7.03;;;6.40;;
64291;SDS011;50628;51.008;13.658;2023-08-06T05:30:52;6.88;;;6.15;;
64291;SDS011;50628;51.008;13.658;2023-08-06T05:35:54;6.85;;;6.30;;
64291;SDS011;50628;51.008;13.658;2023-08-06T05:40:57;8.07;;;7.38;;
64291;SDS011;50628;51.008;13.658;2023-08-06T05:45:59;7.55;;;6.85;;
64291;SDS011;50628;51.008;13.658;2023-08-06T05:51:01;7.85;;;7.15;;
64291;SDS011;50628;51.008;13.658;2023-08-06T05:56:04;7.18;;;5.53;;
64291;SDS011;50628;51.008;13.658;2023-08-06T06:01:06;6.95;;;6.32;;
64291;SDS011;50628;51.008;13.658;2023-08-06T06:06:08;8.20;;;6.65;;
64291;SDS011;50628;51.008;13.658;2023-08-06T06:11:11;8.35;;;7.50;;
64291;SDS011;50628;51.008;13.658;2023-08-06T06:16:13;9.93;;;9.00;;
64291;SDS011;50628;51.008;13.658;2023-08-06T06:21:15;8.65;;;7.85;;
64291;SDS011;50628;51.008;13.658;2023-08-06T06:26:18;6.53;;;5.93;;
64291;SDS011;50628;51.008;13.658;2023-08-06T06:31:20;5.63;;;5.13;;
64291;SDS011;50628;51.008;13.658;2023-08-06T06:36:22;4.50;;;4.10;;
64291;SDS011;50628;51.008;13.658;2023-08-06T06:41:26;5.40;;;4.45;;
64291;SDS011;50628;51.008;13.658;2023-08-06T06:46:36;4.88;;;4.38;;
64291;SDS011;50628;51.008;13.658;2023-08-06T06:51:38;4.88;;;4.30;;
64291;SDS011;50628;51.008;13.658;2023-08-06T06:56:41;5.72;;;4.40;;
64291;SDS011;50628;51.008;13.658;2023-08-06T07:01:43;5.82;;;4.50;;
64291;SDS011;50628;51.008;13.658;2023-08-06T07:06:45;5.35;;;3.60;;
64291;SDS011;50628;51.008;13.658;2023-08-06T07:11:48;6.80;;;4.05;;
64291;SDS011;50628;51.008;13.658;2023-08-06T07:16:50;3.58;;;2.80;;
64291;SDS011;50628;51.008;13.658;2023-08-06T07:21:52;4.25;;;2.92;;
64291;SDS011;50628;51.008;13.658;2023-08-06T07:26:57;4.57;;;2.72;;
64291;SDS011;50628;51.008;13.658;2023-08-06T07:31:59;2.85;;;1.70;;
64291;SDS011;50628;51.008;13.658;2023-08-06T07:37:00;3.42;;;1.83;;
64291;SDS011;50628;51.008;13.658;2023-08-06T07:42:04;2.22;;;1.48;;
64291;SDS011;50628;51.008;13.658;2023-08-06T07:47:07;2.65;;;1.60;;
64291;SDS011;50628;51.008;13.658;2023-08-06T07:52:09;1.63;;;1.50;;
64291;SDS011;50628;51.008;13.658;2023-08-06T07:57:12;1.10;;;1.10;;
64291;SDS011;50628;51.008;13.658;2023-08-06T08:02:15;1.70;;;1.25;;
64291;SDS011;50628;51.008;13.658;2023-08-06T08:07:18;2.42;;;0.95;;
64291;SDS011;50628;51.008;13.658;2023-08-06T08:12:22;4.32;;;0.90;;
64291;SDS011;50628;51.008;13.658;2023-08-06T08:17:24;1.67;;;1.13;;
64291;SDS011;50628;51.008;13.658;2023-08-06T08:22:26;1.58;;;0.80;;
64291;SDS011;50628;51.008;13.658;2023-08-06T08:27:29;2.30;;;0.80;;
64291;SDS011;50628;51.008;13.658;2023-08-06T08:32:31;0.47;;;0.47;;
64291;SDS011;50628;51.008;13.658;2023-08-06T08:37:33;1.00;;;0.68;;
64291;SDS011;50628;51.008;13.658;2023-08-06T08:42:36;3.08;;;0.98;;
64291;SDS011;50628;51.008;13.658;2023-08-06T08:47:39;0.60;;;0.60;;
64291;SDS011;50628;51.008;13.658;2023-08-06T08:52:42;1.38;;;1.00;;
64291;SDS011;50628;51.008;13.658;2023-08-06T08:57:47;2.28;;;1.20;;
64291;SDS011;50628;51.008;13.658;2023-08-06T09:02:48;2.05;;;1.00;;
64291;SDS011;50628;51.008;13.658;2023-08-06T09:07:51;4.75;;;1.30;;
64291;SDS011;50628;51.008;13.658;2023-08-06T09:12:57;1.23;;;1.13;;
64291;SDS011;50628;51.008;13.658;2023-08-06T09:18:04;1.30;;;1.20;;
64291;SDS011;50628;51.008;13.658;2023-08-06T09:23:11;2.53;;;1.42;;
64291;SDS011;50628;51.008;13.658;2023-08-06T09:28:14;1.30;;;1.20;;
64291;SDS011;50628;51.008;13.658;2023-08-06T09:33:17;2.13;;;1.42;;
64291;SDS011;50628;51.008;13.658;2023-08-06T09:38:19;1.55;;;1.20;;
64291;SDS011;50628;51.008;13.658;2023-08-06T09:43:23;2.30;;;1.50;;
64291;SDS011;50628;51.008;13.658;2023-08-06T09:48:24;1.67;;;1.23;;
64291;SDS011;50628;51.008;13.658;2023-08-06T09:53:26;2.40;;;1.50;;
64291;SDS011;50628;51.008;13.658;2023-08-06T09:58:30;3.63;;;1.23;;
64291;SDS011;50628;51.008;13.658;2023-08-06T10:03:33;3.03;;;1.75;;
64291;SDS011;50628;51.008;13.658;2023-08-06T10:08:35;1.25;;;1.15;;
64291;SDS011;50628;51.008;13.658;2023-08-06T10:13:39;1.13;;;1.00;;
64291;SDS011;50628;51.008;13.658;2023-08-06T10:18:41;2.83;;;1.27;;
64291;SDS011;50628;51.008;13.658;2023-08-06T10:23:44;2.50;;;1.23;;
64291;SDS011;50628;51.008;13.658;2023-08-06T10:28:57;1.77;;;1.50;;
64291;SDS011;50628;51.008;13.658;2023-08-06T10:33:58;1.60;;;1.50;;
64291;SDS011;50628;51.008;13.658;2023-08-06T10:39:00;4.22;;;1.45;;
64291;SDS011;50628;51.008;13.658;2023-08-06T10:44:07;1.83;;;1.27;;
64291;SDS011;50628;51.008;13.658;2023-08-06T10:49:09;2.08;;;1.20;;
64291;SDS011;50628;51.008;13.658;2023-08-06T10:54:15;1.23;;;1.08;;
64291;SDS011;50628;51.008;13.658;2023-08-06T10:59:18;1.15;;;0.75;;
64291;SDS011;50628;51.008;13.658;2023-08-06T11:04:21;2.67;;;1.10;;
64291;SDS011;50628;51.008;13.658;2023-08-06T11:09:23;3.28;;;1.10;;
64291;SDS011;50628;51.008;13.658;2023-08-06T11:14:26;4.07;;;0.90;;
64291;SDS011;50628;51.008;13.658;2023-08-06T11:19:29;3.08;;;1.40;;
64291;SDS011;50628;51.008;13.658;2023-08-06T11:24:31;2.88;;;0.90;;
64291;SDS011;50628;51.008;13.658;2023-08-06T11:29:37;2.85;;;1.00;;
64291;SDS011;50628;51.008;13.658;2023-08-06T11:34:39;2.33;;;1.33;;
64291;SDS011;50628;51.008;13.658;2023-08-06T11:39:44;2.05;;;0.82;;
64291;SDS011;50628;51.008;13.658;2023-08-06T11:44:50;1.38;;;1.08;;
64291;SDS011;50628;51.008;13.658;2023-08-06T11:49:52;1.38;;;1.13;;
64291;SDS011;50628;51.008;13.658;2023-08-06T11:55:01;2.17;;;1.20;;
64291;SDS011;50628;51.008;13.658;2023-08-06T12:00:09;2.80;;;2.50;;
64291;SDS011;50628;51.008;13.658;2023-08-06T12:05:18;3.00;;;1.77;;
64291;SDS011;50628;51.008;13.658;2023-08-06T12:10:24;5.85;;;1.40;;
64291;SDS011;50628;51.008;13.658;2023-08-06T12:15:28;2.35;;;0.98;;
64291;SDS011;50628;51.008;13.658;2023-08-06T12:20:30;1.70;;;1.40;;
64291;SDS011;50628;51.008;13.658;2023-08-06T12:25:32;2.42;;;1.25;;
64291;SDS011;50628;51.008;13.658;2023-08-06T12:30:35;2.55;;;0.70;;
64291;SDS011;50628;51.008;13.658;2023-08-06T12:35:37;1.88;;;1.17;;
64291;SDS011;50628;51.008;13.658;2023-08-06T12:40:39;4.63;;;1.33;;
64291;SDS011;50628;51.008;13.658;2023-08-06T12:45:42;1.30;;;1.00;;
64291;SDS011;50628;51.008;13.658;2023-08-06T12:50:44;6.60;;;0.85;;
64291;SDS011;50628;51.008;13.658;2023-08-06T12:55:46;0.60;;;0.55;;
64291;SDS011;50628;51.008;13.658;2023-08-06T13:00:49;1.58;;;0.60;;
64291;SDS011;50628;51.008;13.658;2023-08-06T13:05:51;1.85;;;0.55;;
64291;SDS011;50628;51.008;13.658;2023-08-06T13:10:53;1.40;;;0.60;;
64291;SDS011;50628;51.008;13.658;2023-08-06T13:15:56;1.15;;;0.65;;
64291;SDS011;50628;51.008;13.658;2023-08-06T13:20:58;0.73;;;0.73;;
64291;SDS011;50628;51.008;13.658;2023-08-06T13:26:00;3.42;;;0.98;;
64291;SDS011;50628;51.008;13.658;2023-08-06T13:31:03;3.30;;;1.95;;
64291;SDS011;50628;51.008;13.658;2023-08-06T13:36:05;3.22;;;0.80;;
64291;SDS011;50628;51.008;13.658;2023-08-06T13:41:07;1.08;;;0.70;;
64291;SDS011;50628;51.008;13.658;2023-08-06T13:46:11;1.33;;;0.95;;
64291;SDS011;50628;51.008;13.658;2023-08-06T13:51:16;1.52;;;0.70;;
64291;SDS011;50628;51.008;13.658;2023-08-06T13:56:18;1.42;;;0.93;;
64291;SDS011;50628;51.008;13.658;2023-08-06T14:01:22;4.22;;;0.80;;
64291;SDS011;50628;51.008;13.658;2023-08-06T14:06:24;1.83;;;1.00;;
64291;SDS011;50628;51.008;13.658;2023-08-06T14:11:26;1.10;;;0.60;;
64291;SDS011;50628;51.008;13.658;2023-08-06T14:16:29;2.28;;;0.90;;
64291;SDS011;50628;51.008;13.658;2023-08-06T14:21:31;0.77;;;0.52;;
64291;SDS011;50628;51.008;13.658;2023-08-06T14:26:33;0.70;;;0.70;;
64291;SDS011;50628;51.008;13.658;2023-08-06T14:31:36;0.60;;;0.57;;
64291;SDS011;50628;51.008;13.658;2023-08-06T14:36:38;1.35;;;0.68;;
64291;SDS011;50628;51.008;13.658;2023-08-06T14:41:40;0.50;;;0.50;;
64291;SDS011;50628;51.008;13.658;2023-08-06T14:46:43;1.77;;;0.60;;
64291;SDS011;50628;51.008;13.658;2023-08-06T14:51:46;1.73;;;0.60;;
64291;SDS011;50628;51.008;13.658;2023-08-06T14:56:47;1.30;;;0.90;;
64291;SDS011;50628;51.008;13.658;2023-08-06T15:01:51;3.08;;;1.10;;
64291;SDS011;50628;51.008;13.658;2023-08-06T15:06:53;1.10;;;1.00;;
64291;SDS011;50628;51.008;13.658;2023-08-06T15:11:55;3.10;;;1.15;;
64291;SDS011;50628;51.008;13.658;2023-08-06T15:16:59;1.05;;;0.73;;
64291;SDS011;50628;51.008;13.658;2023-08-06T15:22:00;1.75;;;1.33;;
64291;SDS011;50628;51.008;13.658;2023-08-06T15:27:02;2.78;;;1.13;;
64291;SDS011;50628;51.008;13.658;2023-08-06T15:32:06;5.53;;;1.70;;
64291;SDS011;50628;51.008;13.658;2023-08-06T15:37:08;3.83;;;1.58;;
64291;SDS011;50628;51.008;13.658;2023-08-06T15:42:10;4.40;;;1.20;;
64291;SDS011;50628;51.008;13.658;2023-08-06T15:47:14;2.17;;;1.27;;
64291;SDS011;50628;51.008;13.658;2023-08-06T15:52:16;5.22;;;1.50;;
64291;SDS011;50628;51.008;13.658;2023-08-06T15:57:18;7.85;;;6.57;;
64291;SDS011;50628;51.008;13.658;2023-08-06T16:02:22;3.65;;;3.35;;
64291;SDS011;50628;51.008;13.658;2023-08-06T16:07:24;4.90;;;3.53;;
64291;SDS011;50628;51.008;13.658;2023-08-06T16:12:27;1.83;;;1.65;;
64291;SDS011;50628;51.008;13.658;2023-08-06T16:17:30;4.25;;;2.10;;
64291;SDS011;50628;51.008;13.658;2023-08-06T16:22:32;8.13;;;7.30;;
64291;SDS011;50628;51.008;13.658;2023-08-06T16:27:34;7.18;;;3.70;;
64291;SDS011;50628;51.008;13.658;2023-08-06T16:32:37;3.60;;;3.25;;
64291;SDS011;50628;51.008;13.658;2023-08-06T16:37:39;3.47;;;3.28;;
64291;SDS011;50628;51.008;13.658;2023-08-06T16:42:41;3.80;;;3.50;;
64291;SDS011;50628;51.008;13.658;2023-08-06T16:47:44;3.92;;;3.42;;
64291;SDS011;50628;51.008;13.658;2023-08-06T16:52:47;13.35;;;6.90;;
64291;SDS011;50628;51.008;13.658;2023-08-06T16:57:49;6.50;;;5.60;;
64291;SDS011;50628;51.008;13.658;2023-08-06T17:02:53;8.68;;;6.35;;
64291;SDS011;50628;51.008;13.658;2023-08-06T17:07:54;7.22;;;4.35;;
64291;SDS011;50628;51.008;13.658;2023-08-06T17:12:56;4.68;;;4.03;;
64291;SDS011;50628;51.008;13.658;2023-08-06T17:18:00;10.13;;;4.70;;
64291;SDS011;50628;51.008;13.658;2023-08-06T17:23:01;20.63;;;12.10;;
64291;SDS011;50628;51.008;13.658;2023-08-06T17:28:05;7.00;;;5.78;;
64291;SDS011;50628;51.008;13.658;2023-08-06T17:33:08;6.20;;;5.70;;
64291;SDS011;50628;51.008;13.658;2023-08-06T17:38:11;12.05;;;8.40;;
64291;SDS011;50628;51.008;13.658;2023-08-06T17:43:13;10.07;;;8.75;;
64291;SDS011;50628;51.008;13.658;2023-08-06T17:48:16;10.52;;;8.63;;
64291;SDS011;50628;51.008;13.658;2023-08-06T17:53:18;14.70;;;12.45;;
64291;SDS011;50628;51.008;13.658;2023-08-06T17:58:20;9.35;;;8.55;;
64291;SDS011;50628;51.008;13.658;2023-08-06T18:03:23;10.55;;;9.52;;
64291;SDS011;50628;51.008;13.658;2023-08-06T18:08:25;10.05;;;9.07;;
64291;SDS011;50628;51.008;13.658;2023-08-06T18:13:27;12.23;;;11.02;;
64291;SDS011;50628;51.008;13.658;2023-08-06T18:18:32;11.82;;;10.55;;
64291;SDS011;50628;51.008;13.658;2023-08-06T18:23:34;11.45;;;10.55;;
64291;SDS011;50628;51.008;13.658;2023-08-06T18:28:37;8.93;;;7.82;;
64291;SDS011;50628;51.008;13.658;2023-08-06T18:33:42;6.40;;;5.90;;
64291;SDS011;50628;51.008;13.658;2023-08-06T18:38:44;4.10;;;2.88;;
64291;SDS011;50628;51.008;13.658;2023-08-06T18:43:50;3.42;;;3.13;;
64291;SDS011;50628;51.008;13.658;2023-08-06T18:48:56;4.18;;;3.78;;
64291;SDS011;50628;51.008;13.658;2023-08-06T18:53:58;4.18;;;3.55;;
64291;SDS011;50628;51.008;13.658;2023-08-06T18:59:00;5.00;;;3.28;;
64291;SDS011;50628;51.008;13.658;2023-08-06T19:04:03;3.20;;;2.05;;
64291;SDS011;50628;51.008;13.658;2023-08-06T19:09:05;1.67;;;1.58;;
64291;SDS011;50628;51.008;13.658;2023-08-06T19:14:07;2.35;;;1.80;;
64291;SDS011;50628;51.008;13.658;2023-08-06T19:19:10;3.10;;;1.27;;
64291;SDS011;50628;51.008;13.658;2023-08-06T19:24:12;1.33;;;1.23;;
64291;SDS011;50628;51.008;13.658;2023-08-06T19:29:14;4.03;;;1.73;;
64291;SDS011;50628;51.008;13.658;2023-08-06T19:34:18;2.83;;;1.57;;
64291;SDS011;50628;51.008;13.658;2023-08-06T19:39:20;2.10;;;1.60;;
64291;SDS011;50628;51.008;13.658;2023-08-06T19:44:22;1.97;;;1.60;;
64291;SDS011;50628;51.008;13.658;2023-08-06T19:49:25;1.60;;;1.20;;
64291;SDS011;50628;51.008;13.658;2023-08-06T19:54:27;1.27;;;1.17;;
64291;SDS011;50628;51.008;13.658;2023-08-06T19:59:30;2.20;;;1.70;;
64291;SDS011;50628;51.008;13.658;2023-08-06T20:04:33;1.90;;;1.30;;
64291;SDS011;50628;51.008;13.658;2023-08-06T20:09:35;2.33;;;1.70;;
64291;SDS011;50628;51.008;13.658;2023-08-06T20:14:37;4.07;;;1.43;;
64291;SDS011;50628;51.008;13.658;2023-08-06T20:19:40;4.80;;;1.43;;
64291;SDS011;50628;51.008;13.658;2023-08-06T20:24:42;2.97;;;1.50;;
64291;SDS011;50628;51.008;13.658;2023-08-06T20:29:44;1.07;;;1.03;;
64291;SDS011;50628;51.008;13.658;2023-08-06T20:34:47;2.27;;;1.17;;
64291;SDS011;50628;51.008;13.658;2023-08-06T20:39:49;1.70;;;1.07;;
64291;SDS011;50628;51.008;13.658;2023-08-06T20:44:51;2.10;;;1.23;;
64291;SDS011;50628;51.008;13.658;2023-08-06T20:49:54;2.03;;;0.97;;
64291;SDS011;50628;51.008;13.658;2023-08-06T20:54:56;1.40;;;1.08;;
64291;SDS011;50628;51.008;13.658;2023-08-06T20:59:58;1.47;;;1.10;;
64291;SDS011;50628;51.008;13.658;2023-08-06T21:05:01;1.47;;;1.00;;
64291;SDS011;50628;51.008;13.658;2023-08-06T21:10:04;4.13;;;1.27;;
64291;SDS011;50628;51.008;13.658;2023-08-06T21:15:07;2.88;;;1.33;;
64291;SDS011;50628;51.008;13.658;2023-08-06T21:20:11;1.47;;;1.00;;
64291;SDS011;50628;51.008;13.658;2023-08-06T21:25:13;3.40;;;1.40;;
64291;SDS011;50628;51.008;13.658;2023-08-06T21:30:15;1.90;;;1.20;;
64291;SDS011;50628;51.008;13.658;2023-08-06T21:35:18;4.33;;;1.10;;
64291;SDS011;50628;51.008;13.658;2023-08-06T21:40:20;2.63;;;1.23;;
64291;SDS011;50628;51.008;13.658;2023-08-06T21:45:22;4.60;;;1.20;;
64291;SDS011;50628;51.008;13.658;2023-08-06T21:50:25;2.50;;;0.90;;
64291;SDS011;50628;51.008;13.658;2023-08-06T21:55:29;1.45;;;0.88;;
64291;SDS011;50628;51.008;13.658;2023-08-06T22:00:32;4.40;;;1.53;;
64291;SDS011;50628;51.008;13.658;2023-08-06T22:05:35;2.78;;;1.00;;
64291;SDS011;50628;51.008;13.658;2023-08-06T22:10:37;3.80;;;1.30;;
64291;SDS011;50628;51.008;13.658;2023-08-06T22:15:39;2.30;;;0.70;;
64291;SDS011;50628;51.008;13.658;2023-08-06T22:20:42;3.65;;;1.23;;
64291;SDS011;50628;51.008;13.658;2023-08-06T22:25:44;2.05;;;0.88;;
64291;SDS011;50628;51.008;13.658;2023-08-06T22:30:46;3.65;;;1.10;;
64291;SDS011;50628;51.008;13.658;2023-08-06T22:35:49;4.13;;;1.67;;
64291;SDS011;50628;51.008;13.658;2023-08-06T22:40:52;1.57;;;0.70;;
64291;SDS011;50628;51.008;13.658;2023-08-06T22:45:54;2.20;;;0.70;;
64291;SDS011;50628;51.008;13.658;2023-08-06T22:50:58;0.90;;;0.80;;
64291;SDS011;50628;51.008;13.658;2023-08-06T22:56:00;3.27;;;0.40;;
64291;SDS011;50628;51.008;13.658;2023-08-06T23:01:02;0.93;;;0.70;;
64291;SDS011;50628;51.008;13.658;2023-08-06T23:06:06;2.53;;;0.50;;
64291;SDS011;50628;51.008;13.658;2023-08-06T23:11:09;4.88;;;1.65;;
64291;SDS011;50628;51.008;13.658;2023-08-06T23:16:11;1.33;;;0.67;;
64291;SDS011;50628;51.008;13.658;2023-08-06T23:21:14;1.73;;;0.70;;
64291;SDS011;50628;51.008;13.658;2023-08-06T23:26:16;1.07;;;0.80;;
64291;SDS011;50628;51.008;13.658;2023-08-06T23:31:18;0.73;;;0.73;;
64291;SDS011;50628;51.008;13.658;2023-08-06T23:36:21;1.43;;;1.33;;
64291;SDS011;50628;51.008;13.658;2023-08-06T23:41:23;6.33;;;2.10;;
64291;SDS011;50628;51.008;13.658;2023-08-06T23:46:27;2.30;;;1.43;;
64291;SDS011;50628;51.008;13.658;2023-08-06T23:51:31;2.63;;;1.50;;
64291;SDS011;50628;51.008;13.658;2023-08-06T23:56:32;2.37;;;1.13;;
